Boston, Massachusetts
Traffic Map
Current Weather Conditions
Boston, Massachusetts
Overcast
Overcast
64°
Feels Like: 64°
Wind Chill: 64° Ceiling: 3800
Heat Index: 64° Visibility: 10mi
Dew Point: 60° Wind: 3mph
Humidity: 87% Direction: 60° (ENE)
Pressure: 29.96in Gusts: 0mph
Raw Report DataKBOS 210954Z 06003KT 10SM BKN038 OVC060 18/16 A2996 RMK AO2 SLP145 T01780156
Traffic Incident Summary
Active as of:
Severity:
Category:
InformationThere was an issue retrieving the traffic information for this location. Please try a different location or try again shortly.
Advertisements
Track Severe Weather on mobile